Latest Weather Observations for Mount Isa

IDQ60801

Issued at 10:12 am EST Sunday 17 February 2019 (issued every 10 minutes, with the page automatically refreshed every 10 minutes)

About weather observations | Map of weather stations | Latest weather observations for QLD | Other Formats
Station Details ID: 029127 Name: MOUNT ISA AERO Lat: -20.68 Lon: 139.49 Height: 340.3 m
Data from the previous 72 hours. | See also: Recent months at Mount Isa
Date/Time
EST
Temp
°C
App
Temp
°C
Dew
Point
°C
Rel
Hum
%
Delta-T
°C
Wind Press
QNH
hPa
Press
MSL
hPa
Rain since
9am
mm
Dir  Spd
km/h
Gust
km/h
Spd
kts
Gust
kts
17/10:00am 31.8 29.6 12.1 30 11.8 WNW 15 19 8 10 1013.5 1011.0 0.0
17/09:30am 31.1 28.9 13.4 34 10.8 W 17 20 9 11 1013.5 1011.0 0.0
17/09:00am 29.3 28.3 13.5 38 9.6 WNW 11 15 6 8 1013.4 1010.9 0.0
17/08:30am 26.7 25.8 11.2 38 8.9 NNW 7 11 4 6 1013.2 1010.6 0.0
17/08:00am 24.6 25.1 11.5 44 7.5 CALM 0 0 0 0 1012.9 1010.3 0.0
17/07:30am 20.5 21.3 12.5 60 4.6 CALM 0 0 0 0 1012.5 1009.9 0.0
17/07:00am 17.7 18.8 13.6 77 2.4 CALM 0 0 0 0 1012.0 1009.4 0.0
17/06:30am 17.1 17.8 12.2 73 2.7 CALM 0 0 0 0 1011.6 1009.0 0.0
17/06:00am 17.5 18.4 12.8 74 2.7 CALM 0 0 0 0 1011.6 1009.0 0.0
17/05:30am 17.4 18.1 12.1 71 3.0 CALM 0 0 0 0 1011.2 1008.7 0.0
17/05:00am 17.8 18.5 12.3 70 3.1 CALM 0 0 0 0 1010.9 1008.4 0.0
17/04:30am 18.2 18.2 12.4 69 3.3 S 4 6 2 3 1010.9 1008.4 0.0
17/04:00am 18.5 19.3 12.7 69 3.3 CALM 0 7 0 4 1010.8 1008.3 0.0
17/03:30am 18.7 19.6 12.9 69 3.3 CALM 0 0 0 0 1010.9 1008.4 0.0
17/03:00am 19.2 19.8 12.0 63 4.1 CALM 0 0 0 0 1011.0 1008.5 0.0
17/02:30am 19.9 20.5 11.9 60 4.5 CALM 0 6 0 3 1011.1 1008.6 0.0
17/02:00am 19.5 18.8 11.5 60 4.5 S 6 7 3 4 1011.1 1008.6 0.0
17/01:30am 20.1 20.7 11.8 59 4.7 CALM 0 0 0 0 1011.4 1008.9 0.0
17/01:00am 20.3 20.1 10.4 53 5.5 NNE 2 6 1 3 1011.8 1009.2 0.0
17/12:30am 21.0 20.9 9.3 47 6.3 CALM 0 0 0 0 1011.8 1009.2 0.0
17/12:00am 21.2 21.4 10.7 51 5.8 CALM 0 0 0 0 1012.1 1009.5 0.0
 
Date/Time
EST
Temp
°C
App
Temp
°C
Dew
Point
°C
Rel
Hum
%
Delta-T
°C
Wind Press
QNH
hPa
Press
MSL
hPa
Rain since
9am
mm
Dir  Spd
km/h
Gust
km/h
Spd
kts
Gust
kts
16/11:30pm 21.9 21.9 9.8 46 6.6 CALM 0 0 0 0 1012.2 1009.6 0.0
16/11:00pm 23.1 21.7 8.8 40 7.8 N 6 7 3 4 1012.3 1009.7 0.0
16/10:30pm 24.5 24.3 8.9 37 8.5 CALM 0 0 0 0 1012.2 1009.6 0.0
16/10:00pm 25.9 24.3 8.0 32 9.7 NE 6 9 3 5 1012.1 1009.5 0.0
16/09:30pm 26.9 24.1 6.9 28 10.7 NE 11 15 6 8 1011.9 1009.3 0.0
16/09:00pm 28.9 26.8 3.7 20 13.0 WNW 4 6 2 3 1011.4 1008.9 0.0
16/08:30pm 30.9 26.9 0.3 14 15.0 WSW 11 15 6 8 1011.2 1008.7 0.0
16/08:00pm 29.6 26.5 3.6 19 13.4 W 9 13 5 7 1010.9 1008.4 0.0
16/07:30pm 30.8 28.4 4.5 19 13.8 NW 6 7 3 4 1010.5 1007.9 0.0
16/07:00pm 34.5 31.2 -0.2 11 17.3 WSW 7 9 4 5 1010.1 1007.5 0.0
16/06:30pm 36.3 33.6 3.5 13 17.5 NW 7 11 4 6 1009.7 1007.1 0.0
16/06:00pm 36.7 33.4 2.7 12 18.0 NW 9 13 5 7 1009.6 1007.0 0.0
16/05:30pm 37.4 34.6 2.0 11 18.6 SSE 6 9 3 5 1009.5 1006.9 0.0
16/05:00pm 37.8 34.5 2.3 11 18.8 W 9 19 5 10 1009.6 1007.0 0.0
16/04:30pm 37.0 34.2 2.9 12 18.1 NNW 7 20 4 11 1009.8 1007.2 0.0
16/04:00pm 36.4 32.7 2.5 12 17.9 W 11 17 6 9 1010.1 1007.5 0.0
16/03:30pm 37.4 33.5 3.2 12 18.3 WNW 13 20 7 11 1010.4 1007.8 0.0
16/03:00pm 36.8 32.6 1.5 11 18.3 NNW 13 28 7 15 1010.8 1008.3 0.0
16/02:30pm 36.7 32.7 2.7 12 18.0 WNW 13 28 7 15 1011.2 1008.7 0.0
16/02:00pm 35.3 31.5 1.6 12 17.4 NNW 11 15 6 8 1011.7 1009.1 0.0
16/01:30pm 35.6 31.6 3.0 13 17.2 NNE 13 22 7 12 1012.3 1009.7 0.0
16/01:00pm 34.9 31.2 2.4 13 16.9 NNE 11 22 6 12 1012.9 1010.3 0.0
16/12:30pm 35.1 31.1 2.6 13 17.0 NE 13 20 7 11 1013.4 1010.9 0.0
16/12:00pm 34.5 30.5 3.1 14 16.5 NE 13 19 7 10 1013.9 1011.4 0.0
16/11:30am 34.4 31.2 3.1 14 16.4 SSE 9 15 5 8 1014.2 1011.7 0.0
16/11:00am 33.7 30.2 1.5 13 16.4 WNW 9 11 5 6 1014.4 1011.9 0.0
16/10:30am 33.3 29.8 1.2 13 16.2 ESE 9 13 5 7 1014.9 1012.3 0.0
16/10:00am 32.4 28.0 0.5 13 15.9 SSE 13 17 7 9 1014.8 1012.2 0.0
16/09:30am 31.0 28.8 3.1 17 14.4 ESE 4 9 2 5 1014.9 1012.3 0.0
16/09:00am 28.8 26.4 4.3 21 12.7 SSE 6 7 3 4 1014.9 1012.3 0.0
16/08:30am 27.1 24.4 3.6 22 11.9 S 7 9 4 5 1014.9 1012.3 0.0
16/08:00am 25.2 23.0 5.4 28 10.2 ESE 6 9 3 5 1014.9 1012.3 0.0
16/07:30am 22.7 21.7 7.3 37 8.1 ESE 2 7 1 4 1014.4 1011.9 0.0
16/07:00am 17.8 18.3 11.6 67 3.4 CALM 0 0 0 0 1014.3 1011.8 0.0
16/06:30am 17.2 17.6 11.2 68 3.3 CALM 0 0 0 0 1014.1 1011.6 0.0
16/06:00am 17.2 17.4 10.6 65 3.6 CALM 0 0 0 0 1013.8 1011.3 0.0
16/05:30am 17.3 17.4 10.0 62 3.9 CALM 0 0 0 0 1013.7 1011.2 0.0
16/05:00am 17.7 17.8 10.3 62 4.0 CALM 0 0 0 0 1013.4 1010.9 0.0
16/04:30am 18.3 18.6 10.9 62 4.1 CALM 0 0 0 0 1013.3 1010.7 0.0
16/04:00am 18.8 18.8 9.8 56 4.9 CALM 0 0 0 0 1013.3 1010.7 0.0
16/03:30am 19.7 19.5 9.0 50 5.7 CALM 0 0 0 0 1013.3 1010.7 0.0
16/03:00am 22.1 21.2 5.9 35 8.3 CALM 0 0 0 0 1013.3 1010.7 0.0
16/02:30am 21.4 20.6 8.0 42 7.1 SSE 2 6 1 3 1013.4 1010.9 0.0
16/02:00am 21.4 20.0 10.9 51 5.9 S 9 11 5 6 1013.6 1011.1 0.0
16/01:30am 23.0 20.5 6.7 35 8.5 SSE 9 11 5 6 1013.8 1011.3 0.0
16/01:00am 24.4 21.8 6.2 31 9.5 S 9 11 5 6 1013.9 1011.4 0.0
16/12:30am 23.2 22.9 8.5 39 7.9 CALM 0 0 0 0 1014.3 1011.8 0.0
16/12:00am 24.4 23.7 7.1 33 9.2 CALM 0 6 0 3 1014.3 1011.8 0.0
 
Date/Time
EST
Temp
°C
App
Temp
°C
Dew
Point
°C
Rel
Hum
%
Delta-T
°C
Wind Press
QNH
hPa
Press
MSL
hPa
Rain since
9am
mm
Dir  Spd
km/h
Gust
km/h
Spd
kts
Gust
kts
15/11:30pm 26.0 23.5 6.6 29 10.3 S 9 9 5 5 1014.4 1011.9 0.0
15/11:00pm 23.5 23.4 9.5 41 7.7 CALM 0 0 0 0 1014.5 1012.0 0.0
15/10:30pm 23.8 24.6 12.4 48 6.6 CALM 0 0 0 0 1014.4 1011.9 0.0
15/10:00pm 24.9 23.7 10.4 40 8.2 SSE 7 9 4 5 1014.1 1011.6 0.0
15/09:30pm 26.2 23.8 6.8 29 10.3 SSE 9 11 5 6 1013.5 1011.0 0.0
15/09:00pm 29.3 25.4 3.3 19 13.3 S 13 13 7 7 1013.1 1010.5 0.0
15/08:30pm 28.7 26.2 4.9 22 12.5 S 7 11 4 6 1012.8 1010.2 0.0
15/08:00pm 29.6 25.9 4.3 20 13.2 SW 13 15 7 8 1012.3 1009.7 0.0
15/07:30pm 31.1 27.5 3.2 17 14.4 SSW 11 13 6 7 1012.0 1009.4 0.0
15/07:00pm 33.4 29.5 1.3 13 16.3 SW 11 15 6 8 1011.8 1009.2 0.0
15/06:30pm 35.1 31.1 0.2 11 17.6 WSW 11 15 6 8 1011.4 1008.9 0.0
15/06:00pm 36.0 30.9 0.9 11 18.0 WSW 17 20 9 11 1011.4 1008.9 0.0
15/05:30pm 36.0 31.3 0.9 11 18.0 WSW 15 22 8 12 1011.3 1008.8 0.0
15/05:00pm 36.4 32.1 1.2 11 18.2 SSE 13 17 7 9 1011.6 1009.0 0.0
15/04:30pm 36.1 31.6 -0.3 10 18.3 WSW 13 17 7 9 1011.6 1009.0 0.0
15/04:00pm 36.3 30.7 1.2 11 18.1 WSW 20 26 11 14 1011.8 1009.2 0.0
15/03:30pm 35.8 30.7 0.8 11 17.9 WSW 17 28 9 15 1012.1 1009.5 0.0
15/03:00pm 35.9 30.3 0.9 11 17.9 SW 20 32 11 17 1012.3 1009.7 0.0
15/02:30pm 36.2 31.3 2.3 12 17.8 SW 17 28 9 15 1012.7 1010.1 0.0
15/02:00pm 35.5 31.3 1.8 12 17.4 SSW 13 30 7 16 1013.2 1010.6 0.0
15/01:30pm 35.1 30.1 1.5 12 17.3 WSW 17 30 9 16 1013.4 1010.9 0.0
15/01:00pm 34.9 29.9 3.5 14 16.6 SSW 19 30 10 16 1013.9 1011.4 0.0
15/12:30pm 34.8 30.5 3.4 14 16.6 S 15 26 8 14 1014.3 1011.8 0.0
15/12:00pm 33.6 29.7 1.4 13 16.4 S 11 19 6 10 1014.8 1012.2 0.0
15/11:30am 32.8 28.4 2.8 15 15.5 SE 15 20 8 11 1015.3 1012.7 0.0
15/11:00am 31.7 27.5 1.9 15 15.1 S 13 22 7 12 1015.7 1013.1 0.0
15/10:30am 30.8 26.5 1.2 15 14.7 SSE 13 17 7 9 1015.9 1013.3 0.0
15/10:00am 29.8 25.7 2.1 17 13.9 S 13 19 7 10 1015.9 1013.3 0.0
15/09:30am 28.5 24.5 2.7 19 13.0 SSE 13 17 7 9 1015.9 1013.3 0.0
15/09:00am 27.2 23.6 3.0 21 12.1 S 11 13 6 7 1015.8 1013.2 0.0
15/08:30am 25.8 22.3 1.2 20 11.8 S 9 13 5 7 1015.6 1013.0 0.0
15/08:00am 24.6 21.2 2.1 23 10.9 SSE 9 11 5 6 1015.5 1012.9 0.0
15/07:30am 23.3 21.4 2.7 26 10.0 NNW 2 7 1 4 1015.4 1012.8 0.0
15/07:00am 21.7 18.3 3.9 31 8.7 S 11 13 6 7 1015.0 1012.4 0.0
15/06:30am 22.0 18.8 3.2 29 9.1 S 9 11 5 6 1014.7 1012.1 0.0
15/06:00am 21.6 18.6 2.3 28 9.2 E 7 9 4 5 1014.3 1011.8 0.0
15/05:30am 23.3 19.1 1.6 24 10.3 SSE 13 17 7 9 1013.7 1011.2 0.0
15/05:00am 23.6 19.1 1.9 24 10.4 S 15 17 8 9 1013.7 1011.2 0.0
15/04:30am 23.8 20.1 2.6 25 10.3 SSE 11 15 6 8 1013.6 1011.1 0.0
15/04:00am 24.2 19.8 2.9 25 10.5 SSE 15 19 8 10 1013.2 1010.6 0.0
15/03:30am 24.5 19.8 3.2 25 10.5 S 17 20 9 11 1013.3 1010.7 0.0
15/03:00am 24.5 20.0 4.3 27 10.2 S 17 19 9 10 1013.5 1011.0 0.0
15/02:30am 24.8 21.2 5.1 28 10.1 S 13 15 7 8 1013.7 1011.2 0.0
15/02:00am 25.1 21.5 4.8 27 10.4 S 13 17 7 9 1013.9 1011.4 0.0
15/01:30am 25.7 21.7 4.8 26 10.7 S 15 19 8 10 1013.8 1011.3 0.0
15/01:00am 26.1 21.1 4.6 25 11.0 S 20 26 11 14 1014.0 1011.5 0.0
15/12:30am 26.7 22.4 5.1 25 11.2 SSE 17 20 9 11 1014.1 1011.6 0.0
15/12:00am 26.7 22.9 5.6 26 11.0 S 15 17 8 9 1014.2 1011.7 0.0
 
Date/Time
EST
Temp
°C
App
Temp
°C
Dew
Point
°C
Rel
Hum
%
Delta-T
°C
Wind Press
QNH
hPa
Press
MSL
hPa
Rain since
9am
mm
Dir  Spd
km/h
Gust
km/h
Spd
kts
Gust
kts
14/11:30pm 27.3 23.9 6.1 26 11.2 S 13 15 7 8 1014.4 1011.9 0.0
14/11:00pm 26.8 24.1 7.3 29 10.5 SSE 11 15 6 8 1014.3 1011.8 0.0
14/10:30pm 25.5 22.8 8.9 35 9.1 S 13 17 7 9 1014.1 1011.6 0.0
14/10:00pm 26.8 23.8 7.8 30 10.3 S 13 17 7 9 1013.9 1011.4 0.0
14/09:30pm 26.8 23.9 8.3 31 10.2 SSE 13 17 7 9 1013.8 1011.3 0.0
14/09:00pm 27.7 25.0 9.0 31 10.4 SSE 13 19 7 10 1013.6 1011.1 0.0
14/08:30pm 29.3 25.8 7.2 25 12.1 SSE 15 17 8 9 1013.2 1010.6 0.0
14/08:00pm 30.6 26.9 6.5 22 13.1 SSE 15 19 8 10 1012.8 1010.2 0.0
14/07:30pm 31.5 27.5 6.5 21 13.7 SSE 17 24 9 13 1012.2 1009.6 0.0
14/07:00pm 32.5 28.5 6.7 20 14.2 SSE 17 24 9 13 1011.4 1008.9 0.0
14/06:30pm 33.4 29.6 7.4 20 14.5 SSE 17 24 9 13 1011.1 1008.6 0.0
14/06:00pm 34.1 29.8 7.2 19 15.1 SSE 19 28 10 15 1010.9 1008.4 0.0
14/05:30pm 34.5 30.7 7.5 19 15.2 S 17 26 9 14 1010.8 1008.3 0.0
14/05:00pm 34.5 30.5 6.7 18 15.5 S 17 26 9 14 1010.7 1008.2 0.0
14/04:30pm 34.8 30.3 7.0 18 15.6 SSW 20 32 11 17 1010.8 1008.3 0.0
14/04:00pm 34.6 30.5 6.0 17 15.8 SSE 17 32 9 17 1011.0 1008.5 0.0
14/03:30pm 34.6 31.0 6.8 18 15.5 SSE 15 24 8 13 1011.2 1008.7 0.0
14/03:00pm 34.6 31.2 7.6 19 15.2 S 15 24 8 13 1011.4 1008.9 0.0
14/02:30pm 34.9 31.9 7.9 19 15.3 SSW 13 20 7 11 1011.7 1009.1 0.0
14/02:00pm 34.3 30.8 7.4 19 15.1 SSW 15 30 8 16 1012.1 1009.5 0.0
14/01:30pm 33.5 28.8 5.1 17 15.3 SSW 19 30 10 16 1012.3 1009.7 0.0
14/01:00pm 33.3 29.9 5.8 18 15.0 SSE 13 28 7 15 1012.5 1009.9 0.0
14/12:30pm 32.6 28.3 5.2 18 14.7 S 17 24 9 13 1012.8 1010.2 0.0
14/12:00pm 33.2 29.4 5.7 18 15.0 SE 15 22 8 12 1013.2 1010.6 0.0
14/11:30am 31.4 27.0 5.0 19 14.1 SSE 17 20 9 11 1013.5 1011.0 0.0
14/11:00am 30.7 26.2 4.4 19 13.8 SSE 17 26 9 14 1013.8 1011.3 0.0
14/10:30am 30.0 25.9 4.6 20 13.3 SE 15 20 8 11 1013.9 1011.4 0.0

Other Formats:

Comma delimited format used in spreadsheet applications
http://www.bom.gov.au/fwo/IDQ60801/IDQ60801.94332.axf

JavaScript Object Notation format (JSON) in row-major order
http://www.bom.gov.au/fwo/IDQ60801/IDQ60801.94332.json